sensor_id;sensor_type;location;lat;lon;timestamp;pressure;altitude;pressure_sealevel;temperature;humidity
68873;BME280;55907;50.806;12.882;2022-12-07T00:00:10;971.4;;;2.0;92.2
68873;BME280;55907;50.806;12.882;2022-12-07T00:03:11;971.3;;;2.0;92.3
68873;BME280;55907;50.806;12.882;2022-12-07T00:06:14;971.3;;;2.0;92.0
68873;BME280;55907;50.806;12.882;2022-12-07T00:09:16;971.3;;;1.9;92.2
68873;BME280;55907;50.806;12.882;2022-12-07T00:12:15;971.2;;;1.9;92.7
68873;BME280;55907;50.806;12.882;2022-12-07T00:15:17;971.2;;;1.9;92.7
68873;BME280;55907;50.806;12.882;2022-12-07T00:18:19;971.2;;;1.9;92.8
68873;BME280;55907;50.806;12.882;2022-12-07T00:21:22;971.1;;;1.9;92.6
68873;BME280;55907;50.806;12.882;2022-12-07T00:24:22;971.1;;;1.9;92.5
68873;BME280;55907;50.806;12.882;2022-12-07T00:27:23;971.1;;;1.9;92.0
68873;BME280;55907;50.806;12.882;2022-12-07T00:30:25;971.0;;;2.0;92.0
68873;BME280;55907;50.806;12.882;2022-12-07T00:33:27;971.0;;;2.0;91.4
68873;BME280;55907;50.806;12.882;2022-12-07T00:36:28;971.0;;;2.0;91.3
68873;BME280;55907;50.806;12.882;2022-12-07T00:39:30;971.0;;;2.0;91.1
68873;BME280;55907;50.806;12.882;2022-12-07T00:42:31;971.0;;;2.0;91.4
68873;BME280;55907;50.806;12.882;2022-12-07T00:45:33;970.9;;;2.0;91.3
68873;BME280;55907;50.806;12.882;2022-12-07T00:48:35;970.9;;;2.0;91.5
68873;BME280;55907;50.806;12.882;2022-12-07T00:51:36;971.0;;;1.9;91.6
68873;BME280;55907;50.806;12.882;2022-12-07T00:54:38;970.9;;;1.9;91.7
68873;BME280;55907;50.806;12.882;2022-12-07T00:57:39;970.9;;;1.9;91.7
68873;BME280;55907;50.806;12.882;2022-12-07T01:00:42;970.9;;;1.9;91.5
68873;BME280;55907;50.806;12.882;2022-12-07T01:03:42;970.8;;;2.0;91.5
68873;BME280;55907;50.806;12.882;2022-12-07T01:06:44;970.8;;;1.9;91.6
68873;BME280;55907;50.806;12.882;2022-12-07T01:09:46;970.8;;;1.9;91.6
68873;BME280;55907;50.806;12.882;2022-12-07T01:12:47;970.9;;;1.9;91.4
68873;BME280;55907;50.806;12.882;2022-12-07T01:15:49;970.9;;;1.9;91.4
68873;BME280;55907;50.806;12.882;2022-12-07T01:18:53;970.8;;;1.9;91.4
68873;BME280;55907;50.806;12.882;2022-12-07T01:21:52;970.8;;;1.9;91.3
68873;BME280;55907;50.806;12.882;2022-12-07T01:24:54;970.9;;;1.9;91.1
68873;BME280;55907;50.806;12.882;2022-12-07T01:30:58;970.8;;;1.8;90.7
68873;BME280;55907;50.806;12.882;2022-12-07T01:33:59;970.9;;;1.8;91.1
68873;BME280;55907;50.806;12.882;2022-12-07T01:37:00;970.8;;;1.8;91.4
68873;BME280;55907;50.806;12.882;2022-12-07T01:40:03;970.8;;;1.8;91.5
68873;BME280;55907;50.806;12.882;2022-12-07T01:43:04;970.8;;;1.8;91.4
68873;BME280;55907;50.806;12.882;2022-12-07T01:46:05;970.8;;;1.8;91.7
68873;BME280;55907;50.806;12.882;2022-12-07T01:49:10;970.8;;;1.9;91.5
68873;BME280;55907;50.806;12.882;2022-12-07T01:52:13;970.8;;;1.9;91.6
68873;BME280;55907;50.806;12.882;2022-12-07T01:55:12;970.8;;;1.9;91.3
68873;BME280;55907;50.806;12.882;2022-12-07T01:58:12;970.8;;;1.8;90.3
68873;BME280;55907;50.806;12.882;2022-12-07T02:01:13;970.8;;;1.8;89.9
68873;BME280;55907;50.806;12.882;2022-12-07T02:07:16;970.7;;;1.8;89.9
68873;BME280;55907;50.806;12.882;2022-12-07T02:10:21;970.7;;;1.8;89.7
68873;BME280;55907;50.806;12.882;2022-12-07T02:13:21;970.6;;;1.7;89.3
68873;BME280;55907;50.806;12.882;2022-12-07T02:16:27;970.6;;;1.7;88.3
68873;BME280;55907;50.806;12.882;2022-12-07T02:19:39;970.6;;;1.7;88.4
68873;BME280;55907;50.806;12.882;2022-12-07T02:22:34;970.6;;;1.6;88.5
68873;BME280;55907;50.806;12.882;2022-12-07T02:25:38;970.6;;;1.5;88.6
68873;BME280;55907;50.806;12.882;2022-12-07T02:28:31;970.5;;;1.4;88.6
68873;BME280;55907;50.806;12.882;2022-12-07T02:31:30;970.5;;;1.3;88.7
68873;BME280;55907;50.806;12.882;2022-12-07T02:34:38;970.4;;;1.2;88.7
68873;BME280;55907;50.806;12.882;2022-12-07T02:37:36;970.4;;;1.1;88.9
68873;BME280;55907;50.806;12.882;2022-12-07T02:40:36;970.4;;;1.0;88.9
68873;BME280;55907;50.806;12.882;2022-12-07T02:43:39;970.3;;;0.9;89.2
68873;BME280;55907;50.806;12.882;2022-12-07T02:46:43;970.3;;;0.8;89.3
68873;BME280;55907;50.806;12.882;2022-12-07T02:49:39;970.3;;;0.8;89.1
68873;BME280;55907;50.806;12.882;2022-12-07T02:52:40;970.3;;;0.8;88.9
68873;BME280;55907;50.806;12.882;2022-12-07T02:55:42;970.3;;;0.7;88.6
68873;BME280;55907;50.806;12.882;2022-12-07T02:58:52;970.4;;;0.7;88.6
68873;BME280;55907;50.806;12.882;2022-12-07T03:01:52;970.3;;;0.6;88.6
68873;BME280;55907;50.806;12.882;2022-12-07T03:04:52;970.3;;;0.6;88.6
68873;BME280;55907;50.806;12.882;2022-12-07T03:07:51;970.3;;;0.6;88.9
68873;BME280;55907;50.806;12.882;2022-12-07T03:10:54;970.3;;;0.5;89.2
68873;BME280;55907;50.806;12.882;2022-12-07T03:13:58;970.3;;;0.5;89.0
68873;BME280;55907;50.806;12.882;2022-12-07T03:16:57;970.3;;;0.5;88.7
68873;BME280;55907;50.806;12.882;2022-12-07T03:19:58;970.3;;;0.5;88.9
68873;BME280;55907;50.806;12.882;2022-12-07T03:22:57;970.3;;;0.5;88.6
68873;BME280;55907;50.806;12.882;2022-12-07T03:26:00;970.2;;;0.5;88.3
68873;BME280;55907;50.806;12.882;2022-12-07T03:29:04;970.2;;;0.5;88.1
68873;BME280;55907;50.806;12.882;2022-12-07T03:32:05;970.2;;;0.6;88.0
68873;BME280;55907;50.806;12.882;2022-12-07T03:35:06;970.2;;;0.6;87.7
68873;BME280;55907;50.806;12.882;2022-12-07T03:38:11;970.2;;;0.6;87.6
68873;BME280;55907;50.806;12.882;2022-12-07T03:41:09;970.1;;;0.7;87.6
68873;BME280;55907;50.806;12.882;2022-12-07T03:44:07;970.2;;;0.7;87.4
68873;BME280;55907;50.806;12.882;2022-12-07T03:47:13;970.2;;;0.7;87.3
68873;BME280;55907;50.806;12.882;2022-12-07T03:50:14;970.1;;;0.8;87.2
68873;BME280;55907;50.806;12.882;2022-12-07T03:53:18;970.1;;;0.8;87.3
68873;BME280;55907;50.806;12.882;2022-12-07T03:56:14;970.0;;;0.8;87.0
68873;BME280;55907;50.806;12.882;2022-12-07T03:59:16;970.1;;;0.8;87.0
68873;BME280;55907;50.806;12.882;2022-12-07T04:02:17;970.0;;;0.8;86.9
68873;BME280;55907;50.806;12.882;2022-12-07T04:05:19;969.9;;;0.8;86.7
68873;BME280;55907;50.806;12.882;2022-12-07T04:08:20;969.8;;;0.8;86.4
68873;BME280;55907;50.806;12.882;2022-12-07T04:11:22;969.9;;;0.9;86.1
68873;BME280;55907;50.806;12.882;2022-12-07T04:14:23;969.8;;;0.9;85.8
68873;BME280;55907;50.806;12.882;2022-12-07T04:17:25;969.8;;;1.0;85.2
68873;BME280;55907;50.806;12.882;2022-12-07T04:20:27;969.7;;;1.0;85.2
68873;BME280;55907;50.806;12.882;2022-12-07T04:23:28;969.7;;;1.0;85.2
68873;BME280;55907;50.806;12.882;2022-12-07T04:26:30;969.6;;;1.1;84.8
68873;BME280;55907;50.806;12.882;2022-12-07T04:29:31;969.5;;;1.1;84.4
68873;BME280;55907;50.806;12.882;2022-12-07T04:32:33;969.5;;;1.0;84.1
68873;BME280;55907;50.806;12.882;2022-12-07T04:35:35;969.4;;;1.0;84.5
68873;BME280;55907;50.806;12.882;2022-12-07T04:41:38;969.6;;;0.9;84.5
68873;BME280;55907;50.806;12.882;2022-12-07T04:44:39;969.6;;;0.9;84.7
68873;BME280;55907;50.806;12.882;2022-12-07T04:47:41;969.5;;;0.8;84.9
68873;BME280;55907;50.806;12.882;2022-12-07T04:50:42;969.4;;;0.8;85.2
68873;BME280;55907;50.806;12.882;2022-12-07T04:53:44;969.4;;;0.8;85.1
68873;BME280;55907;50.806;12.882;2022-12-07T04:56:46;969.3;;;0.8;85.2
68873;BME280;55907;50.806;12.882;2022-12-07T04:59:47;969.3;;;0.8;85.4
68873;BME280;55907;50.806;12.882;2022-12-07T05:02:49;969.3;;;0.8;85.4
68873;BME280;55907;50.806;12.882;2022-12-07T05:05:50;969.3;;;0.8;85.3
68873;BME280;55907;50.806;12.882;2022-12-07T05:11:54;969.3;;;0.9;84.9
68873;BME280;55907;50.806;12.882;2022-12-07T05:14:55;969.3;;;1.0;85.4
68873;BME280;55907;50.806;12.882;2022-12-07T05:17:57;969.3;;;1.1;85.2
68873;BME280;55907;50.806;12.882;2022-12-07T05:20:58;969.4;;;1.1;85.6
68873;BME280;55907;50.806;12.882;2022-12-07T05:24:00;969.4;;;1.1;86.6
68873;BME280;55907;50.806;12.882;2022-12-07T05:27:02;969.3;;;1.2;87.5
68873;BME280;55907;50.806;12.882;2022-12-07T05:30:04;969.3;;;1.1;87.9
68873;BME280;55907;50.806;12.882;2022-12-07T05:33:05;969.3;;;1.1;88.8
68873;BME280;55907;50.806;12.882;2022-12-07T05:36:07;969.2;;;1.2;89.7
68873;BME280;55907;50.806;12.882;2022-12-07T05:39:08;969.2;;;1.2;89.6
68873;BME280;55907;50.806;12.882;2022-12-07T05:42:10;969.1;;;1.1;92.3
68873;BME280;55907;50.806;12.882;2022-12-07T05:45:11;969.1;;;1.2;89.2
68873;BME280;55907;50.806;12.882;2022-12-07T05:48:13;969.1;;;1.2;88.9
68873;BME280;55907;50.806;12.882;2022-12-07T05:51:14;969.2;;;1.2;88.9
68873;BME280;55907;50.806;12.882;2022-12-07T05:54:16;969.2;;;1.3;89.9
68873;BME280;55907;50.806;12.882;2022-12-07T05:57:18;969.1;;;1.2;90.8
68873;BME280;55907;50.806;12.882;2022-12-07T06:00:19;969.2;;;1.3;90.8
68873;BME280;55907;50.806;12.882;2022-12-07T06:03:21;969.2;;;1.3;90.9
68873;BME280;55907;50.806;12.882;2022-12-07T06:06:22;969.2;;;1.2;91.6
68873;BME280;55907;50.806;12.882;2022-12-07T06:09:25;969.1;;;1.3;93.9
68873;BME280;55907;50.806;12.882;2022-12-07T06:12:25;969.1;;;1.3;93.9
68873;BME280;55907;50.806;12.882;2022-12-07T06:18:29;969.1;;;1.3;92.3
68873;BME280;55907;50.806;12.882;2022-12-07T06:21:30;969.1;;;1.3;92.0
68873;BME280;55907;50.806;12.882;2022-12-07T06:24:32;969.1;;;1.3;92.1
68873;BME280;55907;50.806;12.882;2022-12-07T06:27:34;969.1;;;1.3;92.0
68873;BME280;55907;50.806;12.882;2022-12-07T06:30:35;969.1;;;1.3;92.3
68873;BME280;55907;50.806;12.882;2022-12-07T06:33:37;969.1;;;1.4;92.4
68873;BME280;55907;50.806;12.882;2022-12-07T06:36:39;969.1;;;1.3;92.8
68873;BME280;55907;50.806;12.882;2022-12-07T06:42:42;969.1;;;1.2;93.7
68873;BME280;55907;50.806;12.882;2022-12-07T06:45:43;969.1;;;1.2;93.8
68873;BME280;55907;50.806;12.882;2022-12-07T06:51:46;969.1;;;1.3;93.7
68873;BME280;55907;50.806;12.882;2022-12-07T06:54:48;969.2;;;1.3;93.2
68873;BME280;55907;50.806;12.882;2022-12-07T06:57:50;969.3;;;1.3;93.5
68873;BME280;55907;50.806;12.882;2022-12-07T07:00:51;969.3;;;1.4;93.1
68873;BME280;55907;50.806;12.882;2022-12-07T07:03:53;969.3;;;1.4;93.0
68873;BME280;55907;50.806;12.882;2022-12-07T07:06:54;969.3;;;1.4;93.3
68873;BME280;55907;50.806;12.882;2022-12-07T07:09:56;969.3;;;1.3;93.3
68873;BME280;55907;50.806;12.882;2022-12-07T07:16:00;969.4;;;1.4;93.2
68873;BME280;55907;50.806;12.882;2022-12-07T07:19:01;969.4;;;1.5;93.3
68873;BME280;55907;50.806;12.882;2022-12-07T07:22:03;969.4;;;1.5;92.9
68873;BME280;55907;50.806;12.882;2022-12-07T07:28:06;969.4;;;1.5;92.9
68873;BME280;55907;50.806;12.882;2022-12-07T07:31:07;969.4;;;1.6;93.2
68873;BME280;55907;50.806;12.882;2022-12-07T07:34:09;969.5;;;1.6;92.9
68873;BME280;55907;50.806;12.882;2022-12-07T07:37:10;969.5;;;1.6;92.9
68873;BME280;55907;50.806;12.882;2022-12-07T07:40:12;969.6;;;1.7;92.9
68873;BME280;55907;50.806;12.882;2022-12-07T07:43:13;969.5;;;1.7;92.6
68873;BME280;55907;50.806;12.882;2022-12-07T07:46:15;969.6;;;1.7;92.5
68873;BME280;55907;50.806;12.882;2022-12-07T07:49:17;969.5;;;1.8;92.8
68873;BME280;55907;50.806;12.882;2022-12-07T07:52:18;969.5;;;1.8;92.5
68873;BME280;55907;50.806;12.882;2022-12-07T07:55:20;969.5;;;1.8;92.2
68873;BME280;55907;50.806;12.882;2022-12-07T07:58:22;969.5;;;1.9;91.8
68873;BME280;55907;50.806;12.882;2022-12-07T08:01:23;969.5;;;1.9;91.6
68873;BME280;55907;50.806;12.882;2022-12-07T08:04:24;969.5;;;2.0;91.5
68873;BME280;55907;50.806;12.882;2022-12-07T08:07:27;969.6;;;2.1;91.1
68873;BME280;55907;50.806;12.882;2022-12-07T08:10:28;969.7;;;2.2;91.0
68873;BME280;55907;50.806;12.882;2022-12-07T08:16:31;969.7;;;2.2;90.3
68873;BME280;55907;50.806;12.882;2022-12-07T08:19:32;969.6;;;2.2;90.2
68873;BME280;55907;50.806;12.882;2022-12-07T08:22:34;969.7;;;2.2;90.3
68873;BME280;55907;50.806;12.882;2022-12-07T08:25:36;969.7;;;2.3;90.2
68873;BME280;55907;50.806;12.882;2022-12-07T08:28:37;969.6;;;2.2;90.2
68873;BME280;55907;50.806;12.882;2022-12-07T08:31:39;969.6;;;2.3;89.8
68873;BME280;55907;50.806;12.882;2022-12-07T08:34:40;969.7;;;2.5;89.8
68873;BME280;55907;50.806;12.882;2022-12-07T08:37:42;969.7;;;2.8;88.6
68873;BME280;55907;50.806;12.882;2022-12-07T08:43:45;969.7;;;3.0;86.6
68873;BME280;55907;50.806;12.882;2022-12-07T08:46:49;969.8;;;3.1;86.4
68873;BME280;55907;50.806;12.882;2022-12-07T08:49:50;969.8;;;3.1;86.2
68873;BME280;55907;50.806;12.882;2022-12-07T08:52:51;969.9;;;3.9;84.7
68873;BME280;55907;50.806;12.882;2022-12-07T08:55:51;969.8;;;4.4;81.0
68873;BME280;55907;50.806;12.882;2022-12-07T08:58:53;969.8;;;4.3;80.4
68873;BME280;55907;50.806;12.882;2022-12-07T09:01:54;969.8;;;4.1;81.2
68873;BME280;55907;50.806;12.882;2022-12-07T09:04:56;969.8;;;3.9;81.9
68873;BME280;55907;50.806;12.882;2022-12-07T09:08:00;969.8;;;3.9;81.9
68873;BME280;55907;50.806;12.882;2022-12-07T09:10:59;969.8;;;4.4;80.6
68873;BME280;55907;50.806;12.882;2022-12-07T09:14:00;969.7;;;5.4;78.2
68873;BME280;55907;50.806;12.882;2022-12-07T09:17:06;969.7;;;6.2;75.2
68873;BME280;55907;50.806;12.882;2022-12-07T09:20:05;969.7;;;6.7;71.6
68873;BME280;55907;50.806;12.882;2022-12-07T09:23:05;969.7;;;6.8;69.5
68873;BME280;55907;50.806;12.882;2022-12-07T09:29:08;969.8;;;6.8;69.5
68873;BME280;55907;50.806;12.882;2022-12-07T09:32:09;969.7;;;7.3;68.7
68873;BME280;55907;50.806;12.882;2022-12-07T09:35:11;969.8;;;6.9;68.7
68873;BME280;55907;50.806;12.882;2022-12-07T09:38:13;969.6;;;6.4;70.7
68873;BME280;55907;50.806;12.882;2022-12-07T09:41:14;969.7;;;6.0;71.9
68873;BME280;55907;50.806;12.882;2022-12-07T09:44:21;969.7;;;5.6;73.8
68873;BME280;55907;50.806;12.882;2022-12-07T09:47:17;969.7;;;5.4;74.4
68873;BME280;55907;50.806;12.882;2022-12-07T09:50:21;969.7;;;5.1;75.6
68873;BME280;55907;50.806;12.882;2022-12-07T09:53:24;969.7;;;4.7;77.1
68873;BME280;55907;50.806;12.882;2022-12-07T09:56:23;969.7;;;4.7;78.5
68873;BME280;55907;50.806;12.882;2022-12-07T09:59:23;969.7;;;4.6;78.5
68873;BME280;55907;50.806;12.882;2022-12-07T10:02:32;969.6;;;4.6;79.0
68873;BME280;55907;50.806;12.882;2022-12-07T10:05:29;969.6;;;4.5;79.5
68873;BME280;55907;50.806;12.882;2022-12-07T10:08:28;969.6;;;4.4;79.8
68873;BME280;55907;50.806;12.882;2022-12-07T10:11:29;969.4;;;4.4;79.9
68873;BME280;55907;50.806;12.882;2022-12-07T10:17:35;969.5;;;4.2;80.8
68873;BME280;55907;50.806;12.882;2022-12-07T10:20:34;969.5;;;4.0;81.3
68873;BME280;55907;50.806;12.882;2022-12-07T10:23:38;969.4;;;4.0;82.2
68873;BME280;55907;50.806;12.882;2022-12-07T10:26:41;969.4;;;4.0;82.3
68873;BME280;55907;50.806;12.882;2022-12-07T10:29:39;969.4;;;4.0;82.5
68873;BME280;55907;50.806;12.882;2022-12-07T10:32:40;969.4;;;4.0;82.6
68873;BME280;55907;50.806;12.882;2022-12-07T10:35:43;969.4;;;4.0;82.4
68873;BME280;55907;50.806;12.882;2022-12-07T10:38:45;969.4;;;3.9;82.1
68873;BME280;55907;50.806;12.882;2022-12-07T10:41:53;969.4;;;3.8;82.8
68873;BME280;55907;50.806;12.882;2022-12-07T10:44:47;969.3;;;3.7;83.6
68873;BME280;55907;50.806;12.882;2022-12-07T10:47:51;969.3;;;3.7;83.7
68873;BME280;55907;50.806;12.882;2022-12-07T10:50:56;969.3;;;3.6;83.6
68873;BME280;55907;50.806;12.882;2022-12-07T10:53:57;969.3;;;3.7;83.7
68873;BME280;55907;50.806;12.882;2022-12-07T10:56:58;969.3;;;3.7;84.1
68873;BME280;55907;50.806;12.882;2022-12-07T11:00:01;969.2;;;3.7;83.9
68873;BME280;55907;50.806;12.882;2022-12-07T11:03:15;969.2;;;3.7;83.5
68873;BME280;55907;50.806;12.882;2022-12-07T11:06:05;969.2;;;3.7;83.0
68873;BME280;55907;50.806;12.882;2022-12-07T11:09:06;969.2;;;3.7;83.4
68873;BME280;55907;50.806;12.882;2022-12-07T11:12:05;969.2;;;3.8;82.8
68873;BME280;55907;50.806;12.882;2022-12-07T11:15:08;969.2;;;3.9;82.3
68873;BME280;55907;50.806;12.882;2022-12-07T11:18:09;969.1;;;4.0;82.3
68873;BME280;55907;50.806;12.882;2022-12-07T11:21:09;969.2;;;4.1;82.2
68873;BME280;55907;50.806;12.882;2022-12-07T11:24:10;969.1;;;4.2;81.8
68873;BME280;55907;50.806;12.882;2022-12-07T11:27:16;969.2;;;4.2;81.6
68873;BME280;55907;50.806;12.882;2022-12-07T11:30:16;969.2;;;4.2;81.7
68873;BME280;55907;50.806;12.882;2022-12-07T11:33:16;969.1;;;4.2;81.6
68873;BME280;55907;50.806;12.882;2022-12-07T11:36:29;969.1;;;4.2;82.0
68873;BME280;55907;50.806;12.882;2022-12-07T11:39:21;969.1;;;4.2;81.3
68873;BME280;55907;50.806;12.882;2022-12-07T11:42:20;969.0;;;4.1;81.4
68873;BME280;55907;50.806;12.882;2022-12-07T11:45:21;969.0;;;4.1;81.4
68873;BME280;55907;50.806;12.882;2022-12-07T11:48:24;969.0;;;4.0;81.5
68873;BME280;55907;50.806;12.882;2022-12-07T11:51:22;969.0;;;4.0;81.1
68873;BME280;55907;50.806;12.882;2022-12-07T11:54:26;969.0;;;4.1;81.4
68873;BME280;55907;50.806;12.882;2022-12-07T11:57:28;969.0;;;4.1;81.3
68873;BME280;55907;50.806;12.882;2022-12-07T12:00:25;969.0;;;4.1;81.6
68873;BME280;55907;50.806;12.882;2022-12-07T12:03:31;968.8;;;4.2;80.6
68873;BME280;55907;50.806;12.882;2022-12-07T12:06:28;968.8;;;4.3;79.6
68873;BME280;55907;50.806;12.882;2022-12-07T12:09:33;968.8;;;4.4;79.1
68873;BME280;55907;50.806;12.882;2022-12-07T12:12:44;968.8;;;4.4;79.3
68873;BME280;55907;50.806;12.882;2022-12-07T12:15:42;968.8;;;4.5;79.0
68873;BME280;55907;50.806;12.882;2022-12-07T12:18:45;968.7;;;4.4;79.0
68873;BME280;55907;50.806;12.882;2022-12-07T12:21:36;968.7;;;4.4;79.4
68873;BME280;55907;50.806;12.882;2022-12-07T12:24:38;968.8;;;4.4;79.5
68873;BME280;55907;50.806;12.882;2022-12-07T12:27:39;968.8;;;4.3;79.8
68873;BME280;55907;50.806;12.882;2022-12-07T12:30:40;968.8;;;4.2;80.4
68873;BME280;55907;50.806;12.882;2022-12-07T12:33:43;968.8;;;4.2;80.6
68873;BME280;55907;50.806;12.882;2022-12-07T12:36:47;968.7;;;4.2;80.0
68873;BME280;55907;50.806;12.882;2022-12-07T12:42:49;968.7;;;4.2;79.2
68873;BME280;55907;50.806;12.882;2022-12-07T12:45:48;968.7;;;4.2;78.9
68873;BME280;55907;50.806;12.882;2022-12-07T12:48:50;968.6;;;4.2;78.3
68873;BME280;55907;50.806;12.882;2022-12-07T12:51:52;968.6;;;4.1;78.6
68873;BME280;55907;50.806;12.882;2022-12-07T13:03:58;968.5;;;4.2;78.5
68873;BME280;55907;50.806;12.882;2022-12-07T13:06:59;968.5;;;4.2;78.2
68873;BME280;55907;50.806;12.882;2022-12-07T13:10:01;968.4;;;4.3;77.4
68873;BME280;55907;50.806;12.882;2022-12-07T13:13:25;968.4;;;4.4;76.2
68873;BME280;55907;50.806;12.882;2022-12-07T13:25:11;968.4;;;4.5;75.6
68873;BME280;55907;50.806;12.882;2022-12-07T13:28:15;968.4;;;4.4;75.6
68873;BME280;55907;50.806;12.882;2022-12-07T13:31:18;968.4;;;4.4;75.4
68873;BME280;55907;50.806;12.882;2022-12-07T13:34:31;968.4;;;4.4;76.4
68873;BME280;55907;50.806;12.882;2022-12-07T13:37:19;968.4;;;4.4;76.1
68873;BME280;55907;50.806;12.882;2022-12-07T13:40:18;968.4;;;4.4;77.1
68873;BME280;55907;50.806;12.882;2022-12-07T13:43:18;968.4;;;4.4;76.9
68873;BME280;55907;50.806;12.882;2022-12-07T13:46:25;968.4;;;4.3;76.5
68873;BME280;55907;50.806;12.882;2022-12-07T13:49:23;968.4;;;4.3;77.2
68873;BME280;55907;50.806;12.882;2022-12-07T13:52:24;968.3;;;4.2;76.8
68873;BME280;55907;50.806;12.882;2022-12-07T13:55:24;968.4;;;4.2;76.9
68873;BME280;55907;50.806;12.882;2022-12-07T13:58:27;968.3;;;4.3;76.0
68873;BME280;55907;50.806;12.882;2022-12-07T14:01:28;968.4;;;4.3;76.3
68873;BME280;55907;50.806;12.882;2022-12-07T14:04:32;968.4;;;4.3;76.0
68873;BME280;55907;50.806;12.882;2022-12-07T14:07:30;968.3;;;4.4;75.6
68873;BME280;55907;50.806;12.882;2022-12-07T14:10:33;968.3;;;4.3;75.7
68873;BME280;55907;50.806;12.882;2022-12-07T14:13:34;968.3;;;4.3;76.0
68873;BME280;55907;50.806;12.882;2022-12-07T14:16:36;968.3;;;4.3;76.5
68873;BME280;55907;50.806;12.882;2022-12-07T14:19:43;968.3;;;4.3;76.3
68873;BME280;55907;50.806;12.882;2022-12-07T14:22:38;968.3;;;4.3;76.0
68873;BME280;55907;50.806;12.882;2022-12-07T14:25:48;968.3;;;4.3;76.0
68873;BME280;55907;50.806;12.882;2022-12-07T14:28:42;968.3;;;4.3;75.9
68873;BME280;55907;50.806;12.882;2022-12-07T14:31:42;968.3;;;4.3;75.8
68873;BME280;55907;50.806;12.882;2022-12-07T14:34:53;968.4;;;4.2;75.8
68873;BME280;55907;50.806;12.882;2022-12-07T14:37:48;968.4;;;4.1;75.8
68873;BME280;55907;50.806;12.882;2022-12-07T14:40:47;968.5;;;4.0;75.3
68873;BME280;55907;50.806;12.882;2022-12-07T14:43:48;968.4;;;4.1;75.4
68873;BME280;55907;50.806;12.882;2022-12-07T14:46:50;968.4;;;4.0;75.4
68873;BME280;55907;50.806;12.882;2022-12-07T14:49:52;968.4;;;4.0;75.5
68873;BME280;55907;50.806;12.882;2022-12-07T14:52:55;968.5;;;3.9;75.5
68873;BME280;55907;50.806;12.882;2022-12-07T14:55:55;968.5;;;3.8;75.5
68873;BME280;55907;50.806;12.882;2022-12-07T14:58:56;968.4;;;3.8;76.1
68873;BME280;55907;50.806;12.882;2022-12-07T15:01:58;968.4;;;3.8;76.3
68873;BME280;55907;50.806;12.882;2022-12-07T15:04:59;968.5;;;3.8;76.7
68873;BME280;55907;50.806;12.882;2022-12-07T15:08:01;968.5;;;3.9;77.1
68873;BME280;55907;50.806;12.882;2022-12-07T15:11:02;968.5;;;3.8;77.2
68873;BME280;55907;50.806;12.882;2022-12-07T15:14:04;968.6;;;3.8;77.0
68873;BME280;55907;50.806;12.882;2022-12-07T15:17:05;968.6;;;3.7;77.7
68873;BME280;55907;50.806;12.882;2022-12-07T15:20:11;968.6;;;3.6;77.3
68873;BME280;55907;50.806;12.882;2022-12-07T15:23:09;968.6;;;3.5;77.7
68873;BME280;55907;50.806;12.882;2022-12-07T15:26:10;968.6;;;3.5;78.0
68873;BME280;55907;50.806;12.882;2022-12-07T15:29:12;968.6;;;3.5;78.3
68873;BME280;55907;50.806;12.882;2022-12-07T15:32:13;968.6;;;3.4;78.6
68873;BME280;55907;50.806;12.882;2022-12-07T15:35:15;968.6;;;3.3;78.6
68873;BME280;55907;50.806;12.882;2022-12-07T15:38:16;968.6;;;3.3;79.7
68873;BME280;55907;50.806;12.882;2022-12-07T15:41:18;968.6;;;3.3;79.6
68873;BME280;55907;50.806;12.882;2022-12-07T15:44:20;968.5;;;3.2;79.2
68873;BME280;55907;50.806;12.882;2022-12-07T15:50:23;968.5;;;3.2;78.9
68873;BME280;55907;50.806;12.882;2022-12-07T15:53:24;968.5;;;3.3;79.2
68873;BME280;55907;50.806;12.882;2022-12-07T15:56:26;968.6;;;3.3;78.9
68873;BME280;55907;50.806;12.882;2022-12-07T15:59:28;968.5;;;3.3;79.5
68873;BME280;55907;50.806;12.882;2022-12-07T16:02:29;968.5;;;3.2;79.6
68873;BME280;55907;50.806;12.882;2022-12-07T16:05:30;968.5;;;3.2;80.0
68873;BME280;55907;50.806;12.882;2022-12-07T16:08:32;968.5;;;3.2;79.6
68873;BME280;55907;50.806;12.882;2022-12-07T16:11:34;968.5;;;3.2;79.5
68873;BME280;55907;50.806;12.882;2022-12-07T16:14:36;968.5;;;3.2;79.3
68873;BME280;55907;50.806;12.882;2022-12-07T16:17:37;968.5;;;3.2;79.3
68873;BME280;55907;50.806;12.882;2022-12-07T16:20:39;968.5;;;3.2;79.4
68873;BME280;55907;50.806;12.882;2022-12-07T16:23:40;968.5;;;3.2;79.4
68873;BME280;55907;50.806;12.882;2022-12-07T16:26:42;968.5;;;3.2;79.0
68873;BME280;55907;50.806;12.882;2022-12-07T16:29:43;968.5;;;3.2;78.5
68873;BME280;55907;50.806;12.882;2022-12-07T16:32:45;968.6;;;3.2;78.7
68873;BME280;55907;50.806;12.882;2022-12-07T16:35:46;968.5;;;3.2;78.4
68873;BME280;55907;50.806;12.882;2022-12-07T16:38:48;968.6;;;3.2;78.4
68873;BME280;55907;50.806;12.882;2022-12-07T16:41:49;968.7;;;3.1;78.7
68873;BME280;55907;50.806;12.882;2022-12-07T16:44:51;968.7;;;3.1;78.6
68873;BME280;55907;50.806;12.882;2022-12-07T16:47:52;968.6;;;3.1;78.8
68873;BME280;55907;50.806;12.882;2022-12-07T16:50:54;968.6;;;3.1;79.2
68873;BME280;55907;50.806;12.882;2022-12-07T16:53:56;968.6;;;3.0;79.3
68873;BME280;55907;50.806;12.882;2022-12-07T16:56:57;968.6;;;3.0;79.5
68873;BME280;55907;50.806;12.882;2022-12-07T16:59:59;968.6;;;3.0;79.8
68873;BME280;55907;50.806;12.882;2022-12-07T17:03:00;968.7;;;3.0;80.1
68873;BME280;55907;50.806;12.882;2022-12-07T17:06:02;968.6;;;3.1;79.7
68873;BME280;55907;50.806;12.882;2022-12-07T17:09:04;968.6;;;3.1;80.0
68873;BME280;55907;50.806;12.882;2022-12-07T17:12:05;968.6;;;3.1;79.7
68873;BME280;55907;50.806;12.882;2022-12-07T17:15:08;968.6;;;3.0;80.0
68873;BME280;55907;50.806;12.882;2022-12-07T17:18:08;968.6;;;3.0;80.4
68873;BME280;55907;50.806;12.882;2022-12-07T17:21:10;968.6;;;3.0;80.5
68873;BME280;55907;50.806;12.882;2022-12-07T17:27:13;968.6;;;2.9;80.3
68873;BME280;55907;50.806;12.882;2022-12-07T17:30:15;968.6;;;2.8;80.6
68873;BME280;55907;50.806;12.882;2022-12-07T17:33:16;968.6;;;2.8;80.6
68873;BME280;55907;50.806;12.882;2022-12-07T17:39:19;968.6;;;2.8;80.6
68873;BME280;55907;50.806;12.882;2022-12-07T17:42:21;968.6;;;2.8;80.7
68873;BME280;55907;50.806;12.882;2022-12-07T17:48:24;968.5;;;2.8;80.6
68873;BME280;55907;50.806;12.882;2022-12-07T17:51:26;968.6;;;2.8;80.4
68873;BME280;55907;50.806;12.882;2022-12-07T17:54:28;968.6;;;2.8;80.6
68873;BME280;55907;50.806;12.882;2022-12-07T17:57:29;968.6;;;2.8;80.9
68873;BME280;55907;50.806;12.882;2022-12-07T18:00:30;968.6;;;2.8;80.9
68873;BME280;55907;50.806;12.882;2022-12-07T18:03:32;968.6;;;2.8;81.1
68873;BME280;55907;50.806;12.882;2022-12-07T18:06:34;968.7;;;2.8;81.2
68873;BME280;55907;50.806;12.882;2022-12-07T18:09:35;968.7;;;2.8;81.3
68873;BME280;55907;50.806;12.882;2022-12-07T18:12:37;968.7;;;2.9;81.3
68873;BME280;55907;50.806;12.882;2022-12-07T18:15:38;968.6;;;2.9;81.3
68873;BME280;55907;50.806;12.882;2022-12-07T18:18:40;968.6;;;2.9;81.2
68873;BME280;55907;50.806;12.882;2022-12-07T18:21:42;968.6;;;2.9;81.7